createdAt,value
2022-09-05T00:01:44.084Z,17.00
2022-09-05T00:06:55.265Z,16.80
2022-09-05T00:12:01.705Z,16.70
2022-09-05T00:17:16.889Z,16.60
2022-09-05T00:24:30.625Z,16.70
2022-09-05T00:27:59.662Z,16.60
2022-09-05T00:33:23.889Z,16.60
2022-09-05T00:38:36.817Z,16.50
2022-09-05T00:43:44.261Z,16.30
2022-09-05T00:48:52.206Z,16.00
2022-09-05T00:54:40.887Z,15.80
2022-09-05T01:00:03.017Z,15.80
2022-09-05T01:05:11.107Z,15.80
2022-09-05T01:10:23.729Z,15.80
2022-09-05T01:15:34.258Z,15.70
2022-09-05T01:20:56.633Z,15.90
2022-09-05T01:26:09.540Z,15.90
2022-09-05T01:31:24.558Z,15.70
2022-09-05T01:36:42.080Z,15.60
2022-09-05T01:41:50.424Z,15.50
2022-09-05T01:47:29.569Z,15.50
2022-09-05T01:53:00.486Z,15.40
2022-09-05T01:58:16.702Z,15.50
2022-09-05T02:03:32.368Z,15.60
2022-09-05T02:08:48.226Z,15.70
2022-09-05T02:13:58.147Z,15.80
2022-09-05T02:19:14.795Z,15.90
2022-09-05T02:24:22.528Z,16.00
2022-09-05T02:29:31.664Z,15.90
2022-09-05T02:34:44.776Z,15.80
2022-09-05T02:44:08.117Z,15.70
2022-09-05T02:45:26.667Z,15.50
2022-09-05T02:53:41.246Z,15.50
2022-09-05T02:57:44.681Z,15.50
2022-09-05T03:02:25.440Z,15.40
2022-09-05T03:07:52.598Z,15.20
2022-09-05T03:13:53.912Z,15.10
2022-09-05T03:19:26.321Z,15.00
2022-09-05T03:25:21.239Z,14.90
2022-09-05T03:30:24.951Z,14.80
2022-09-05T03:35:56.736Z,14.80
2022-09-05T03:41:12.837Z,14.70
2022-09-05T03:46:34.165Z,14.60
2022-09-05T03:57:06.778Z,14.60
2022-09-05T03:57:42.764Z,14.70
2022-09-05T04:08:10.246Z,14.80
2022-09-05T04:08:42.009Z,14.70
2022-09-05T04:13:52.268Z,15.00
2022-09-05T04:19:05.043Z,14.90
2022-09-05T04:24:11.589Z,14.80
2022-09-05T04:29:23.579Z,14.80
2022-09-05T04:34:49.871Z,14.80
2022-09-05T04:39:54.101Z,14.70
2022-09-05T04:45:03.161Z,14.70
2022-09-05T04:50:11.743Z,14.70
2022-09-05T04:55:17.207Z,15.00
2022-09-05T05:03:01.683Z,15.10
2022-09-05T05:06:12.050Z,15.20
2022-09-05T05:18:03.251Z,15.40
2022-09-05T05:18:06.544Z,15.50
2022-09-05T05:22:18.083Z,15.50
2022-09-05T05:27:25.835Z,15.50
2022-09-05T05:32:45.560Z,15.60
2022-09-05T05:37:54.423Z,15.70
2022-09-05T05:43:15.394Z,16.00
2022-09-05T05:48:31.828Z,16.30
2022-09-05T05:53:51.628Z,16.60
2022-09-05T05:59:08.959Z,16.90
2022-09-05T06:04:51.425Z,17.20
2022-09-05T06:14:51.067Z,17.60
2022-09-05T06:16:23.984Z,17.90
2022-09-05T06:22:13.837Z,18.30
2022-09-05T06:27:58.007Z,18.60
2022-09-05T06:33:14.559Z,19.00
2022-09-05T06:38:31.697Z,19.30
2022-09-05T06:43:51.376Z,19.70
2022-09-05T06:49:30.424Z,20.00
2022-09-05T06:54:37.349Z,20.20
2022-09-05T07:00:10.370Z,20.50
2022-09-05T07:05:45.183Z,20.80
2022-09-05T07:10:56.776Z,21.00
2022-09-05T07:16:24.406Z,21.40
2022-09-05T07:21:44.858Z,21.20
2022-09-05T07:26:53.709Z,21.10
2022-09-05T07:32:01.958Z,21.50
2022-09-05T07:37:14.947Z,22.20
2022-09-05T07:42:23.755Z,22.60
2022-09-05T07:47:32.163Z,22.80
2022-09-05T07:56:50.753Z,22.60
2022-09-05T07:58:07.774Z,22.80
2022-09-05T08:03:14.626Z,24.70
2022-09-05T08:08:20.261Z,26.90
2022-09-05T08:13:30.299Z,28.20
2022-09-05T08:18:38.432Z,29.00
2022-09-05T08:23:53.157Z,28.10
2022-09-05T08:29:04.276Z,28.60
2022-09-05T08:34:12.619Z,29.80
2022-09-05T08:39:20.438Z,30.40
2022-09-05T08:46:44.400Z,31.30
2022-09-05T08:50:26.917Z,32.90
2022-09-05T08:55:40.529Z,36.10
2022-09-05T09:00:55.593Z,37.20
2022-09-05T09:06:16.986Z,38.80
2022-09-05T09:11:30.883Z,38.40
2022-09-05T09:16:40.856Z,37.90
2022-09-05T09:21:50.640Z,38.90
2022-09-05T09:26:58.060Z,39.10
2022-09-05T09:32:06.879Z,40.20
2022-09-05T09:37:55.320Z,41.00
2022-09-05T09:43:07.378Z,42.10
2022-09-05T09:48:40.886Z,44.50
2022-09-05T09:54:03.140Z,44.00
2022-09-05T09:59:54.189Z,43.30
2022-09-05T10:10:34.023Z,45.40
2022-09-05T10:11:52.427Z,45.40
2022-09-05T10:16:54.866Z,43.80
2022-09-05T10:22:38.000Z,46.20
2022-09-05T10:27:57.652Z,48.20
2022-09-05T10:35:15.397Z,47.10
2022-09-05T10:38:47.294Z,46.90
2022-09-05T10:43:56.976Z,47.70
2022-09-05T10:49:07.949Z,48.90
2022-09-05T10:54:30.205Z,47.80
2022-09-05T11:02:21.333Z,48.00
2022-09-05T11:05:23.579Z,45.60
2022-09-05T11:10:34.687Z,46.20
2022-09-05T11:16:04.308Z,48.10
2022-09-05T11:21:12.742Z,49.10
2022-09-05T11:26:27.633Z,48.30
2022-09-05T11:32:17.541Z,45.30
2022-09-05T11:40:08.919Z,42.20
2022-09-05T11:42:49.614Z,42.70
2022-09-05T11:48:28.621Z,41.20
2022-09-05T11:54:09.774Z,35.50
2022-09-05T11:59:38.911Z,32.80
2022-09-05T12:05:50.166Z,36.40
2022-09-05T12:10:43.593Z,38.40
2022-09-05T12:16:08.248Z,33.20
2022-09-05T12:21:26.870Z,31.50
2022-09-05T12:27:42.270Z,30.50
2022-09-05T12:34:03.456Z,29.80
2022-09-05T12:40:58.023Z,29.10
2022-09-05T12:44:00.751Z,28.90
2022-09-05T12:48:38.949Z,29.30
2022-09-05T12:53:45.927Z,29.40
2022-09-05T13:03:01.433Z,30.20
2022-09-05T13:04:25.255Z,29.90
2022-09-05T13:10:34.040Z,30.50
2022-09-05T13:15:21.507Z,31.40
2022-09-05T13:20:34.114Z,31.70
2022-09-05T13:25:41.406Z,35.60
2022-09-05T13:37:55.196Z,33.60
2022-09-05T13:38:08.169Z,31.50
2022-09-05T13:41:53.874Z,29.50
2022-09-05T13:47:00.764Z,29.10
2022-09-05T13:52:21.141Z,28.80
2022-09-05T13:57:37.848Z,29.70
2022-09-05T14:08:41.106Z,30.30
2022-09-05T14:14:04.834Z,30.80
2022-09-05T14:19:35.267Z,31.30
2022-09-05T14:24:52.940Z,31.30
2022-09-05T14:30:19.735Z,31.00
2022-09-05T14:37:48.904Z,33.40
2022-09-05T14:41:43.185Z,36.90
2022-09-05T14:47:47.515Z,40.10
2022-09-05T15:02:44.026Z,37.20
2022-09-05T15:12:16.122Z,35.30
2022-09-05T15:14:46.802Z,34.50
2022-09-05T15:20:06.249Z,34.50
2022-09-05T15:25:19.030Z,35.00
2022-09-05T15:30:31.856Z,35.30
2022-09-05T15:35:43.796Z,35.00
2022-09-05T15:40:46.503Z,33.80
2022-09-05T15:45:49.798Z,33.40
2022-09-05T15:50:56.344Z,31.20
2022-09-05T15:56:14.080Z,29.50
2022-09-05T16:01:30.410Z,28.90
2022-09-05T16:10:41.440Z,28.40
2022-09-05T16:12:19.836Z,27.70
2022-09-05T16:23:18.356Z,27.10
2022-09-05T16:23:24.619Z,26.60
2022-09-05T16:28:23.917Z,26.00
2022-09-05T16:33:28.453Z,25.50
2022-09-05T16:38:49.743Z,25.20
2022-09-05T16:43:56.478Z,24.80
2022-09-05T16:49:11.953Z,24.30
2022-09-05T16:54:23.248Z,24.00
2022-09-05T16:59:29.869Z,24.10
2022-09-05T17:05:04.138Z,24.00
2022-09-05T17:10:11.583Z,23.90
2022-09-05T17:15:17.627Z,23.90
2022-09-05T17:20:23.057Z,23.50
2022-09-05T17:29:25.747Z,23.30
2022-09-05T17:36:40.910Z,23.10
2022-09-05T17:42:01.604Z,22.80
2022-09-05T17:47:15.325Z,22.70
2022-09-05T17:52:23.576Z,22.60
2022-09-05T17:57:39.270Z,22.50
2022-09-05T18:02:54.706Z,22.40
2022-09-05T18:07:58.124Z,22.40
2022-09-05T18:13:32.524Z,22.00
2022-09-05T18:19:28.517Z,21.90
2022-09-05T18:24:04.570Z,21.90
2022-09-05T18:29:24.706Z,21.80
2022-09-05T18:35:09.042Z,21.70
2022-09-05T18:40:36.831Z,21.80
2022-09-05T18:45:52.457Z,21.60
2022-09-05T18:51:15.415Z,21.40
2022-09-05T18:56:27.583Z,21.40
2022-09-05T19:01:38.146Z,21.30
2022-09-05T19:06:49.349Z,21.20
2022-09-05T19:12:31.849Z,21.00
2022-09-05T19:17:34.680Z,20.90
2022-09-05T19:23:10.314Z,20.70
2022-09-05T19:36:45.426Z,20.50
2022-09-05T19:36:50.765Z,20.40
2022-09-05T19:41:19.933Z,20.40
2022-09-05T19:47:49.885Z,20.30
2022-09-05T19:50:05.631Z,20.30
2022-09-05T19:55:20.395Z,20.20
2022-09-05T20:00:25.263Z,20.10
2022-09-05T20:05:29.775Z,20.00
2022-09-05T20:10:34.248Z,20.00
2022-09-05T20:15:38.852Z,20.00
2022-09-05T20:20:51.678Z,19.90
2022-09-05T20:25:56.450Z,19.80
2022-09-05T20:31:02.002Z,19.70
2022-09-05T20:43:10.236Z,19.40
2022-09-05T20:43:16.876Z,19.30
2022-09-05T20:52:58.518Z,19.10
2022-09-05T20:54:26.878Z,19.10
2022-09-05T20:57:57.411Z,19.40
2022-09-05T21:03:01.885Z,19.50
2022-09-05T21:08:30.996Z,19.40
2022-09-05T21:13:36.292Z,19.40
2022-09-05T21:18:42.854Z,19.30
2022-09-05T21:23:47.009Z,19.10
2022-09-05T21:29:05.483Z,18.90
2022-09-05T21:34:13.128Z,18.60
2022-09-05T21:39:20.005Z,18.70
2022-09-05T21:47:42.353Z,18.70
2022-09-05T21:49:45.584Z,18.60
2022-09-05T21:59:14.018Z,18.40
2022-09-05T22:00:15.484Z,18.40
2022-09-05T22:05:20.083Z,18.40
2022-09-05T22:10:32.455Z,18.30
2022-09-05T22:15:48.473Z,18.10
2022-09-05T22:21:31.914Z,18.10
2022-09-05T22:26:19.853Z,18.30
2022-09-05T22:31:23.318Z,18.40
2022-09-05T22:36:26.519Z,18.30
2022-09-05T22:41:31.140Z,18.20
2022-09-05T22:46:34.111Z,17.90
2022-09-05T22:51:36.831Z,17.80
2022-09-05T22:56:40.998Z,17.70
2022-09-05T23:01:43.907Z,17.80
2022-09-05T23:06:46.705Z,17.80
2022-09-05T23:11:50.728Z,17.70
2022-09-05T23:16:53.938Z,17.60
2022-09-05T23:21:56.669Z,17.40
2022-09-05T23:27:00.928Z,17.40
2022-09-05T23:32:03.960Z,17.30
2022-09-05T23:37:08.238Z,17.30
2022-09-05T23:42:13.371Z,17.00
2022-09-05T23:47:16.118Z,17.00
2022-09-05T23:52:18.856Z,17.00
2022-09-05T23:57:24.001Z,17.00
